createdAt,value
2023-01-21T00:01:50.645Z,98854.59
2023-01-21T00:04:17.152Z,98860.59
2023-01-21T00:06:43.814Z,98858.03
2023-01-21T00:09:10.657Z,98858.88
2023-01-21T00:11:37.273Z,98856.31
2023-01-21T00:14:03.652Z,98877.66
2023-01-21T00:16:30.032Z,98881.91
2023-01-21T00:18:56.927Z,98878.50
2023-01-21T00:21:23.320Z,98880.19
2023-01-21T00:23:49.919Z,98888.75
2023-01-21T00:26:16.301Z,98875.09
2023-01-21T00:28:43.723Z,98864.00
2023-01-21T00:31:10.752Z,98859.72
2023-01-21T00:33:37.251Z,98843.50
2023-01-21T00:36:08.414Z,98825.56
2023-01-21T00:38:34.912Z,98809.34
2023-01-21T00:41:01.278Z,98776.03
2023-01-21T00:43:27.684Z,98760.66
2023-01-21T00:45:54.089Z,98708.53
2023-01-21T00:48:20.555Z,98691.41
2023-01-21T00:50:46.981Z,98666.59
2023-01-21T00:53:13.379Z,98625.53
2023-01-21T00:55:39.805Z,98597.28
2023-01-21T00:58:06.442Z,98548.53
2023-01-21T01:00:32.992Z,98524.50
2023-01-21T01:02:59.699Z,98503.91
2023-01-21T01:05:26.173Z,98473.91
2023-01-21T01:07:52.539Z,98462.75
2023-01-21T01:10:19.131Z,98442.22
2023-01-21T01:12:45.470Z,98401.97
2023-01-21T01:15:11.939Z,98374.50
2023-01-21T01:17:38.538Z,98356.47
2023-01-21T01:20:05.463Z,98338.41
2023-01-21T01:22:32.057Z,98318.66
2023-01-21T01:24:58.403Z,98308.31
2023-01-21T01:27:24.757Z,98292.81
2023-01-21T01:29:51.187Z,98224.19
2023-01-21T01:32:17.535Z,98148.72
2023-01-21T01:34:44.937Z,98073.25
2023-01-21T01:37:11.308Z,98008.06
2023-01-21T01:39:37.704Z,97955.69
2023-01-21T01:42:04.173Z,97918.78
2023-01-21T01:45:00.673Z,97880.19
2023-01-21T01:47:37.156Z,97845.88
2023-01-21T01:50:04.609Z,97815.81
2023-01-21T01:52:30.951Z,97781.53
2023-01-21T01:54:58.089Z,97757.47
2023-01-21T01:57:27.843Z,97723.13
2023-01-21T01:59:54.416Z,97711.06
2023-01-21T02:02:20.865Z,97683.53
2023-01-21T02:04:52.251Z,97676.59
2023-01-21T02:07:19.193Z,97659.38
2023-01-21T02:09:45.564Z,97648.31
2023-01-21T02:12:11.938Z,97628.50
2023-01-21T02:14:42.878Z,97611.31
2023-01-21T02:17:15.391Z,97585.50
2023-01-21T02:20:09.770Z,97569.13
2023-01-21T02:23:10.903Z,97552.81
2023-01-21T02:26:04.870Z,97533.00
2023-01-21T02:28:36.798Z,97514.84
2023-01-21T02:31:24.570Z,97502.00
2023-01-21T02:34:06.069Z,97501.13
2023-01-21T02:36:44.063Z,97490.75
2023-01-21T02:39:29.168Z,97471.75
2023-01-21T02:42:28.920Z,97470.81
2023-01-21T02:45:13.948Z,97463.06
2023-01-21T02:47:55.651Z,97459.38
2023-01-21T02:50:26.803Z,97459.28
2023-01-21T02:53:00.212Z,97464.34
2023-01-21T02:55:31.708Z,97480.53
2023-01-21T02:58:01.049Z,97498.53
2023-01-21T03:00:31.453Z,97516.50
2023-01-21T03:03:41.162Z,97525.84
2023-01-21T03:06:18.739Z,97535.91
2023-01-21T03:08:51.911Z,97565.91
2023-01-21T03:11:19.642Z,97583.06
2023-01-21T03:14:48.151Z,97599.44
2023-01-21T03:17:20.281Z,97587.31
2023-01-21T03:20:15.986Z,97585.59
2023-01-21T03:22:42.776Z,97579.53
2023-01-21T03:25:09.353Z,97587.25
2023-01-21T03:27:37.326Z,97582.13
2023-01-21T03:30:08.407Z,97582.91
2023-01-21T03:32:36.284Z,97597.47
2023-01-21T03:35:03.867Z,97605.19
2023-01-21T03:38:16.645Z,97598.28
2023-01-21T03:40:56.142Z,97616.28
2023-01-21T03:43:22.517Z,97626.53
2023-01-21T03:46:03.531Z,97625.72
2023-01-21T03:48:36.396Z,97605.88
2023-01-21T03:51:09.274Z,97600.59
2023-01-21T03:53:35.885Z,97598.94
2023-01-21T03:56:02.239Z,97608.28
2023-01-21T03:58:28.618Z,97609.13
2023-01-21T04:00:55.037Z,97609.03
2023-01-21T04:03:22.364Z,97612.47
2023-01-21T04:05:48.745Z,97620.19
2023-01-21T04:08:15.089Z,97619.34
2023-01-21T04:10:41.667Z,97630.44
2023-01-21T04:13:08.063Z,97639.06
2023-01-21T04:15:34.426Z,97621.00
2023-01-21T04:18:00.972Z,97612.38
2023-01-21T04:20:27.350Z,97608.91
2023-01-21T04:22:53.799Z,97608.84
2023-01-21T04:25:20.538Z,97619.03
2023-01-21T04:27:46.940Z,97625.03
2023-01-21T04:30:13.578Z,97639.63
2023-01-21T04:32:39.977Z,97652.53
2023-01-21T04:35:06.850Z,97670.59
2023-01-21T04:37:33.235Z,97691.16
2023-01-21T04:39:59.609Z,97681.78
2023-01-21T04:42:26.212Z,97689.50
2023-01-21T04:44:52.567Z,97689.50
2023-01-21T04:47:18.903Z,97696.41
2023-01-21T04:49:45.286Z,97700.72
2023-01-21T04:52:11.707Z,97709.25
2023-01-21T04:54:38.069Z,97703.22
2023-01-21T04:57:04.456Z,97690.28
2023-01-21T04:59:30.897Z,97679.09
2023-01-21T05:01:57.345Z,97692.84
2023-01-21T05:04:23.736Z,97706.69
2023-01-21T05:06:50.127Z,97737.69
2023-01-21T05:09:16.712Z,97775.66
2023-01-21T05:11:43.111Z,97820.53
2023-01-21T05:14:09.467Z,97856.69
2023-01-21T05:16:35.867Z,97864.44
2023-01-21T05:19:02.225Z,97843.75
2023-01-21T05:21:28.567Z,97817.06
2023-01-21T05:23:55.434Z,97796.38
2023-01-21T05:26:21.779Z,97774.03
2023-01-21T05:28:48.169Z,97763.84
2023-01-21T05:31:14.656Z,97727.75
2023-01-21T05:33:43.869Z,97725.44
2023-01-21T05:36:10.244Z,97702.38
2023-01-21T05:38:36.780Z,97680.88
2023-01-21T05:41:03.325Z,97657.59
2023-01-21T05:43:29.813Z,97666.28
2023-01-21T05:45:56.487Z,97678.47
2023-01-21T05:48:23.202Z,97674.09
2023-01-21T05:50:49.929Z,97702.56
2023-01-21T05:53:16.951Z,97755.00
2023-01-21T05:55:43.596Z,97798.69
2023-01-21T05:58:09.981Z,97825.09
2023-01-21T06:00:36.352Z,97858.53
2023-01-21T06:03:03.103Z,97877.28
2023-01-21T06:05:29.986Z,97902.09
2023-01-21T06:07:56.344Z,97914.88
2023-01-21T06:10:22.825Z,97951.72
2023-01-21T06:12:52.346Z,98004.22
2023-01-21T06:15:19.139Z,98018.75
2023-01-21T06:17:47.397Z,98035.03
2023-01-21T06:20:14.130Z,98041.78
2023-01-21T06:22:40.793Z,98042.66
2023-01-21T06:25:07.375Z,98075.22
2023-01-21T06:27:34.381Z,98085.56
2023-01-21T06:30:00.741Z,98086.50
2023-01-21T06:32:27.133Z,98101.03
2023-01-21T06:34:53.508Z,98114.78
2023-01-21T06:37:19.901Z,98127.69
2023-01-21T06:39:46.233Z,98137.09
2023-01-21T06:42:12.811Z,98141.28
2023-01-21T06:44:39.212Z,98151.56
2023-01-21T06:47:05.724Z,98185.88
2023-01-21T06:49:32.102Z,98189.34
2023-01-21T06:51:58.460Z,98198.75
2023-01-21T06:54:24.888Z,98197.84
2023-01-21T06:56:51.223Z,98197.81
2023-01-21T06:59:17.591Z,98187.38
2023-01-21T07:01:44.254Z,98190.75
2023-01-21T07:04:10.788Z,98203.63
2023-01-21T07:06:37.500Z,98203.56
2023-01-21T07:09:04.732Z,98213.78
2023-01-21T07:11:31.440Z,98215.50
2023-01-21T07:13:58.193Z,98233.56
2023-01-21T07:16:24.681Z,98235.09
2023-01-21T07:18:51.106Z,98235.09
2023-01-21T07:21:17.491Z,98234.25
2023-01-21T07:23:43.951Z,98233.34
2023-01-21T07:26:10.407Z,98235.91
2023-01-21T07:28:36.750Z,98240.19
2023-01-21T07:31:03.838Z,98255.63
2023-01-21T07:33:30.323Z,98264.13
2023-01-21T07:35:56.905Z,98264.19
2023-01-21T07:38:23.281Z,98269.28
2023-01-21T07:40:50.417Z,98273.69
2023-01-21T07:43:16.975Z,98268.50
2023-01-21T07:45:43.551Z,98265.13
2023-01-21T07:48:10.555Z,98256.50
2023-01-21T07:50:37.487Z,98254.84
2023-01-21T07:53:04.658Z,98261.69
2023-01-21T07:55:31.086Z,98264.22
2023-01-21T07:57:57.697Z,98260.78
2023-01-21T08:00:27.004Z,98247.09
2023-01-21T08:02:54.997Z,98241.84
2023-01-21T08:05:22.254Z,98239.25
2023-01-21T08:07:48.631Z,98243.66
2023-01-21T08:10:15.754Z,98246.06
2023-01-21T08:12:42.253Z,98255.47
2023-01-21T08:15:09.319Z,98250.28
2023-01-21T08:17:39.656Z,98259.66
2023-01-21T08:20:07.331Z,98254.50
2023-01-21T08:22:33.701Z,98269.88
2023-01-21T08:25:00.135Z,98270.72
2023-01-21T08:27:26.494Z,98269.84
2023-01-21T08:29:52.873Z,98280.09
2023-01-21T08:32:19.652Z,98280.94
2023-01-21T08:34:46.030Z,98292.09
2023-01-21T08:37:12.393Z,98304.09
2023-01-21T08:39:38.782Z,98304.84
2023-01-21T08:42:05.182Z,98309.97
2023-01-21T08:44:31.553Z,98326.38
2023-01-21T08:46:57.934Z,98330.75
2023-01-21T08:49:24.446Z,98329.84
2023-01-21T08:51:51.033Z,98318.63
2023-01-21T08:54:17.622Z,98314.38
2023-01-21T08:56:43.959Z,98299.78
2023-01-21T08:59:10.939Z,98292.94
2023-01-21T09:01:40.841Z,98274.81
2023-01-21T09:04:07.461Z,98263.53
2023-01-21T09:06:33.841Z,98253.22
2023-01-21T09:09:00.237Z,98257.59
2023-01-21T09:11:27.006Z,98248.13
2023-01-21T09:13:53.344Z,98254.94
2023-01-21T09:16:22.312Z,98249.78
2023-01-21T09:18:49.067Z,98246.34
2023-01-21T09:21:16.002Z,98252.47
2023-01-21T09:23:42.437Z,98232.63
2023-01-21T09:26:08.811Z,98225.56
2023-01-21T09:28:38.580Z,98222.13
2023-01-21T09:31:15.343Z,98214.31
2023-01-21T09:33:43.310Z,98207.38
2023-01-21T09:36:12.972Z,98207.34
2023-01-21T09:38:41.885Z,98211.59
2023-01-21T09:41:36.040Z,98209.75
2023-01-21T09:44:11.467Z,98210.38
2023-01-21T09:47:06.092Z,98199.88
2023-01-21T09:49:41.388Z,98204.06
2023-01-21T09:52:27.420Z,98219.50
2023-01-21T09:54:54.383Z,98228.91
2023-01-21T09:57:36.468Z,98249.41
2023-01-21T10:00:24.831Z,98265.75
2023-01-21T10:03:12.833Z,98270.75
2023-01-21T10:05:43.237Z,98279.28
2023-01-21T10:08:37.554Z,98286.13
2023-01-21T10:11:22.311Z,98296.44
2023-01-21T10:14:26.071Z,98305.00
2023-01-21T10:17:10.787Z,98315.22
2023-01-21T10:19:40.750Z,98339.22
2023-01-21T10:22:12.842Z,98349.38
2023-01-21T10:24:45.166Z,98368.16
2023-01-21T10:27:21.676Z,98387.81
2023-01-21T10:30:02.326Z,98429.91
2023-01-21T10:32:28.854Z,98460.69
2023-01-21T10:34:56.239Z,98485.44
2023-01-21T10:37:43.396Z,98541.25
2023-01-21T10:40:44.274Z,98585.88
2023-01-21T10:43:20.014Z,98613.22
2023-01-21T10:45:56.002Z,98636.38
2023-01-21T10:48:37.407Z,98654.28
2023-01-21T10:51:23.728Z,98692.13
2023-01-21T10:53:56.540Z,98742.69
2023-01-21T10:56:29.601Z,98768.44
2023-01-21T10:58:58.009Z,98805.28
2023-01-21T11:01:33.490Z,98843.91
2023-01-21T11:04:03.700Z,98915.34
2023-01-21T11:06:30.922Z,98956.63
2023-01-21T11:08:59.980Z,98980.63
2023-01-21T11:11:28.368Z,98996.00
2023-01-21T11:13:55.402Z,99004.56
2023-01-21T11:16:43.315Z,99007.06
2023-01-21T11:19:13.027Z,99026.84
2023-01-21T11:21:40.084Z,99057.78
2023-01-21T11:24:23.613Z,99079.31
2023-01-21T11:26:56.855Z,99089.66
2023-01-21T11:29:23.984Z,99086.97
2023-01-21T11:32:05.230Z,99087.72
2023-01-21T11:34:31.669Z,99094.56
2023-01-21T11:37:02.718Z,99117.78
2023-01-21T11:39:38.967Z,99133.22
2023-01-21T11:42:15.752Z,99160.75
2023-01-21T11:45:06.081Z,99163.25
2023-01-21T11:47:47.832Z,99144.16
2023-01-21T11:50:16.193Z,99144.09
2023-01-21T11:52:42.796Z,99157.75
2023-01-21T11:55:23.834Z,99174.03
2023-01-21T11:57:52.182Z,99203.25
2023-01-21T12:00:21.716Z,99229.06
2023-01-21T12:02:51.527Z,99248.81
2023-01-21T12:05:31.496Z,99287.59
2023-01-21T12:07:58.076Z,99285.78
2023-01-21T12:10:27.847Z,99321.91
2023-01-21T12:13:00.463Z,99358.06
2023-01-21T12:15:45.214Z,99368.31
2023-01-21T12:18:29.510Z,99414.00
2023-01-21T12:21:04.205Z,99423.44
2023-01-21T12:23:52.116Z,99421.63
2023-01-21T12:26:57.095Z,99411.22
2023-01-21T12:29:32.327Z,99404.19
2023-01-21T12:32:01.694Z,99413.63
2023-01-21T12:34:30.955Z,99423.97
2023-01-21T12:37:00.522Z,99428.19
2023-01-21T12:39:32.488Z,99467.94
2023-01-21T12:42:11.631Z,99448.88
2023-01-21T12:44:51.241Z,99479.97
2023-01-21T12:47:36.571Z,99483.44
2023-01-21T12:50:21.532Z,99489.47
2023-01-21T12:53:06.963Z,99483.44
2023-01-21T12:55:52.164Z,99481.78
2023-01-21T12:58:19.264Z,99483.50
2023-01-21T13:00:46.576Z,99473.19
2023-01-21T13:03:25.813Z,99458.56
2023-01-21T13:06:11.803Z,99440.50
2023-01-21T13:08:57.162Z,99440.50
2023-01-21T13:11:32.548Z,99414.59
2023-01-21T13:14:08.296Z,99437.06
2023-01-21T13:16:55.609Z,99425.03
2023-01-21T13:19:22.083Z,99409.47
2023-01-21T13:21:53.484Z,99388.78
2023-01-21T13:24:56.118Z,99393.88
2023-01-21T13:27:26.395Z,99388.72
2023-01-21T13:29:55.688Z,99412.88
2023-01-21T13:32:42.911Z,99431.88
2023-01-21T13:35:47.045Z,99469.78
2023-01-21T13:38:54.394Z,99457.63
2023-01-21T13:41:29.762Z,99467.06
2023-01-21T13:44:08.611Z,99492.16
2023-01-21T13:46:47.113Z,99533.56
2023-01-21T13:49:31.783Z,99532.63
2023-01-21T13:52:04.863Z,99547.25
2023-01-21T13:54:53.230Z,99563.63
2023-01-21T13:57:28.659Z,99589.50
2023-01-21T14:00:01.253Z,99590.41
2023-01-21T14:02:31.631Z,99589.56
2023-01-21T14:05:11.235Z,99605.06
2023-01-21T14:08:08.523Z,99614.59
2023-01-21T14:10:41.621Z,99627.53
2023-01-21T14:13:26.811Z,99640.47
2023-01-21T14:16:27.329Z,99630.16
2023-01-21T14:19:32.233Z,99625.84
2023-01-21T14:22:10.507Z,99622.44
2023-01-21T14:24:59.411Z,99630.19
2023-01-21T14:28:07.532Z,99615.59
2023-01-21T14:31:09.252Z,99600.97
2023-01-21T14:33:44.141Z,99595.78
2023-01-21T14:36:15.978Z,99588.03
2023-01-21T14:38:57.914Z,99557.81
2023-01-21T14:41:24.270Z,99561.31
2023-01-21T14:43:51.952Z,99548.41
2023-01-21T14:46:24.421Z,99543.28
2023-01-21T14:49:04.121Z,99523.50
2023-01-21T14:51:31.323Z,99511.41
2023-01-21T14:54:19.667Z,99505.44
2023-01-21T14:57:10.260Z,99473.59
2023-01-21T14:59:46.016Z,99447.75
2023-01-21T15:02:34.532Z,99402.94
2023-01-21T15:05:09.977Z,99358.16
2023-01-21T15:07:39.214Z,99339.22
2023-01-21T15:10:19.915Z,99320.34
2023-01-21T15:12:51.213Z,99299.75
2023-01-21T15:15:34.395Z,99271.38
2023-01-21T15:18:20.634Z,99260.16
2023-01-21T15:20:49.446Z,99242.13
2023-01-21T15:23:29.035Z,99225.75
2023-01-21T15:26:31.954Z,99220.59
2023-01-21T15:29:34.030Z,99217.19
2023-01-21T15:32:22.196Z,99207.78
2023-01-21T15:34:50.974Z,99210.38
2023-01-21T15:37:22.374Z,99196.66
2023-01-21T15:39:52.387Z,99189.75
2023-01-21T15:42:49.582Z,99182.88
2023-01-21T15:45:28.669Z,99173.41
2023-01-21T15:47:55.029Z,99160.50
2023-01-21T15:50:39.832Z,99146.72
2023-01-21T15:53:34.663Z,99138.97
2023-01-21T15:56:22.980Z,99135.47
2023-01-21T15:59:26.876Z,99126.00
2023-01-21T16:02:14.973Z,99119.97
2023-01-21T16:05:07.268Z,99107.03
2023-01-21T16:08:12.841Z,99096.75
2023-01-21T16:10:52.427Z,99086.41
2023-01-21T16:13:23.519Z,99077.72
2023-01-21T16:15:53.588Z,99069.97
2023-01-21T16:18:32.908Z,99066.50
2023-01-21T16:20:59.618Z,99049.34
2023-01-21T16:23:26.847Z,99043.38
2023-01-21T16:25:53.297Z,99033.09
2023-01-21T16:28:20.214Z,99021.13
2023-01-21T16:30:57.517Z,98991.88
2023-01-21T16:33:24.139Z,98973.81
2023-01-21T16:35:56.166Z,98954.03
2023-01-21T16:38:27.529Z,98948.81
2023-01-21T16:41:18.898Z,98938.47
2023-01-21T16:43:45.260Z,98935.00
2023-01-21T16:46:12.734Z,98917.72
2023-01-21T16:48:39.091Z,98908.28
2023-01-21T16:51:05.721Z,98899.63
2023-01-21T16:53:32.151Z,98883.22
2023-01-21T16:55:59.204Z,98868.56
2023-01-21T16:58:26.527Z,98859.06
2023-01-21T17:01:01.806Z,98842.75
2023-01-21T17:03:28.712Z,98830.63
2023-01-21T17:05:57.073Z,98800.50
2023-01-21T17:08:23.452Z,98805.56
2023-01-21T17:11:09.046Z,98787.47
2023-01-21T17:13:35.658Z,98774.50
2023-01-21T17:16:02.142Z,98757.25
2023-01-21T17:18:37.295Z,98733.13
2023-01-21T17:21:08.699Z,98727.03
2023-01-21T17:23:35.022Z,98723.47
2023-01-21T17:26:06.711Z,98717.38
2023-01-21T17:28:46.599Z,98694.94
2023-01-21T17:31:16.080Z,98700.09
2023-01-21T17:33:43.007Z,98703.50
2023-01-21T17:36:14.229Z,98713.84
2023-01-21T17:38:45.039Z,98717.22
2023-01-21T17:41:25.035Z,98723.28
2023-01-21T17:43:52.120Z,98734.44
2023-01-21T17:46:22.898Z,98726.69
2023-01-21T17:48:50.969Z,98743.06
2023-01-21T17:51:19.624Z,98758.59
2023-01-21T17:54:05.593Z,98768.91
2023-01-21T17:56:38.516Z,98778.34
2023-01-21T17:59:34.416Z,98787.81
2023-01-21T18:02:18.965Z,98793.88
2023-01-21T18:04:45.382Z,98789.59
2023-01-21T18:07:16.126Z,98796.53
2023-01-21T18:09:42.473Z,98794.81
2023-01-21T18:12:09.366Z,98792.31
2023-01-21T18:14:35.715Z,98794.94
2023-01-21T18:17:02.062Z,98783.75
2023-01-21T18:19:31.365Z,98770.03
2023-01-21T18:21:58.341Z,98760.50
2023-01-21T18:24:25.467Z,98760.50
2023-01-21T18:26:52.213Z,98763.03
2023-01-21T18:29:19.592Z,98763.97
2023-01-21T18:31:47.984Z,98770.81
2023-01-21T18:34:14.635Z,98757.00
2023-01-21T18:36:40.998Z,98753.56
2023-01-21T18:39:14.576Z,98759.59
2023-01-21T18:41:41.012Z,98760.50
2023-01-21T18:44:07.823Z,98761.34
2023-01-21T18:46:34.326Z,98762.19
2023-01-21T18:49:05.663Z,98776.09
2023-01-21T18:51:32.240Z,98776.09
2023-01-21T18:53:58.631Z,98777.78
2023-01-21T18:56:25.205Z,98784.63
2023-01-21T18:58:51.555Z,98788.94
2023-01-21T19:01:23.594Z,98810.47
2023-01-21T19:03:52.472Z,98818.25
2023-01-21T19:06:19.133Z,98836.31
2023-01-21T19:08:46.041Z,98844.97
2023-01-21T19:11:12.919Z,98874.28
2023-01-21T19:13:39.263Z,98885.44
2023-01-21T19:16:06.565Z,98884.59
2023-01-21T19:18:32.972Z,98888.91
2023-01-21T19:20:59.406Z,98898.38
2023-01-21T19:23:25.835Z,98915.63
2023-01-21T19:25:54.427Z,98926.78
2023-01-21T19:28:20.866Z,98948.38
2023-01-21T19:30:49.549Z,98969.88
2023-01-21T19:33:15.992Z,98995.72
2023-01-21T19:35:43.678Z,99017.25
2023-01-21T19:38:11.941Z,99021.59
2023-01-21T19:40:38.316Z,98995.75
2023-01-21T19:43:04.927Z,98936.47
2023-01-21T19:45:31.276Z,98841.88
2023-01-21T19:47:57.800Z,98766.38
2023-01-21T19:50:25.280Z,98666.78
2023-01-21T19:52:52.313Z,98543.09
2023-01-21T19:55:23.686Z,98422.81
2023-01-21T19:57:56.807Z,98290.53
2023-01-21T20:00:31.499Z,98199.50
2023-01-21T20:02:58.315Z,98103.31
2023-01-21T20:05:26.557Z,98009.56
2023-01-21T20:07:53.399Z,97909.03
2023-01-21T20:10:22.029Z,97838.56
2023-01-21T20:12:48.495Z,97756.91
2023-01-21T20:15:16.170Z,97666.59
2023-01-21T20:17:46.145Z,97596.06
2023-01-21T20:20:17.172Z,97543.56
2023-01-21T20:22:43.691Z,97480.81
2023-01-21T20:25:15.278Z,97429.97
2023-01-21T20:27:42.835Z,97375.91
2023-01-21T20:30:18.656Z,97329.47
2023-01-21T20:32:45.549Z,97296.69
2023-01-21T20:35:12.289Z,97272.56
2023-01-21T20:37:39.642Z,97255.34
2023-01-21T20:40:06.506Z,97246.91
2023-01-21T20:42:32.852Z,97241.88
2023-01-21T20:44:59.231Z,97231.69
2023-01-21T20:47:37.828Z,97221.53
2023-01-21T20:50:23.884Z,97207.72
2023-01-21T20:52:50.477Z,97199.97
2023-01-21T20:55:20.969Z,97187.22
2023-01-21T20:57:47.742Z,97172.16
2023-01-21T21:00:32.992Z,97158.50
2023-01-21T21:02:59.371Z,97115.50
2023-01-21T21:05:27.606Z,97095.84
2023-01-21T21:07:54.365Z,97064.84
2023-01-21T21:10:29.351Z,97059.13
2023-01-21T21:12:55.872Z,97029.84
2023-01-21T21:15:22.429Z,97004.25
2023-01-21T21:17:49.070Z,96995.72
2023-01-21T21:20:19.995Z,96965.63
2023-01-21T21:22:46.502Z,96943.47
2023-01-21T21:25:17.336Z,96926.56
2023-01-21T21:27:44.385Z,96893.06
2023-01-21T21:30:16.181Z,96877.75
2023-01-21T21:32:42.819Z,96844.41
2023-01-21T21:35:24.384Z,96807.41
2023-01-21T21:37:51.430Z,96776.66
2023-01-21T21:40:19.244Z,96756.16
2023-01-21T21:43:04.610Z,96721.00
2023-01-21T21:45:30.967Z,96692.66
2023-01-21T21:48:15.786Z,96669.53
2023-01-21T21:50:42.144Z,96634.28
2023-01-21T21:53:08.567Z,96613.66
2023-01-21T21:55:34.967Z,96593.06
2023-01-21T21:58:01.365Z,96576.13
2023-01-21T22:00:28.847Z,96566.81
2023-01-21T22:03:02.415Z,96543.69
2023-01-21T22:05:30.451Z,96527.41
2023-01-21T22:07:56.866Z,96511.09
2023-01-21T22:10:23.247Z,96491.34
2023-01-21T22:12:49.616Z,96483.53
2023-01-21T22:15:16.198Z,96471.56
2023-01-21T22:17:42.770Z,96476.88
2023-01-21T22:20:10.011Z,96463.06
2023-01-21T22:22:36.364Z,96457.75
2023-01-21T22:25:02.780Z,96464.56
2023-01-21T22:27:29.120Z,96443.03
2023-01-21T22:29:55.520Z,96455.09
2023-01-21T22:32:21.869Z,96452.44
2023-01-21T22:34:48.205Z,96470.63
2023-01-21T22:37:14.757Z,96485.19
2023-01-21T22:39:41.109Z,96498.13
2023-01-21T22:42:07.669Z,96502.47
2023-01-21T22:44:34.279Z,96528.97
2023-01-21T22:47:00.649Z,96536.13
2023-01-21T22:49:27.082Z,96542.19
2023-01-21T22:51:55.136Z,96580.06
2023-01-21T22:54:21.496Z,96574.91
2023-01-21T22:56:52.754Z,96580.91
2023-01-21T22:59:19.610Z,96573.28
2023-01-21T23:01:46.451Z,96583.56
2023-01-21T23:04:12.901Z,96577.69
2023-01-21T23:06:39.504Z,96581.91
2023-01-21T23:09:09.216Z,96586.34
2023-01-21T23:11:37.849Z,96588.66
2023-01-21T23:14:04.243Z,96592.97
2023-01-21T23:16:30.592Z,96592.06
2023-01-21T23:18:57.511Z,96566.31
2023-01-21T23:21:23.900Z,96562.81
2023-01-21T23:23:50.534Z,96540.34
2023-01-21T23:26:19.090Z,96545.50
2023-01-21T23:28:45.660Z,96554.00
2023-01-21T23:31:16.636Z,96536.78
2023-01-21T23:33:43.199Z,96538.38
2023-01-21T23:36:12.656Z,96552.16
2023-01-21T23:38:40.767Z,96541.84
2023-01-21T23:41:08.032Z,96538.38
2023-01-21T23:43:34.675Z,96530.56
2023-01-21T23:46:01.075Z,96539.22
2023-01-21T23:48:27.623Z,96538.22
2023-01-21T23:50:53.990Z,96531.41
2023-01-21T23:53:20.352Z,96534.91
2023-01-21T23:55:46.718Z,96534.06
2023-01-21T23:58:13.148Z,96527.81
